sensor_id;sensor_type;location;lat;lon;timestamp;P1;durP1;ratioP1;P2;durP2;ratioP2
12591;SDS011;6361;52.120;5.108;2022-10-13T00:01:19;28.83;;;12.52;;
12591;SDS011;6361;52.120;5.108;2022-10-13T00:03:46;21.73;;;12.00;;
12591;SDS011;6361;52.120;5.108;2022-10-13T00:06:12;24.85;;;12.40;;
12591;SDS011;6361;52.120;5.108;2022-10-13T00:08:39;22.85;;;12.25;;
12591;SDS011;6361;52.120;5.108;2022-10-13T00:11:16;23.13;;;12.95;;
12591;SDS011;6361;52.120;5.108;2022-10-13T00:13:44;31.00;;;12.93;;
12591;SDS011;6361;52.120;5.108;2022-10-13T00:16:09;23.90;;;13.30;;
12591;SDS011;6361;52.120;5.108;2022-10-13T00:18:36;24.60;;;12.95;;
12591;SDS011;6361;52.120;5.108;2022-10-13T00:21:04;24.33;;;13.00;;
12591;SDS011;6361;52.120;5.108;2022-10-13T00:23:32;26.15;;;12.73;;
12591;SDS011;6361;52.120;5.108;2022-10-13T00:26:00;27.42;;;13.00;;
12591;SDS011;6361;52.120;5.108;2022-10-13T00:28:30;26.52;;;13.15;;
12591;SDS011;6361;52.120;5.108;2022-10-13T00:30:55;24.52;;;12.73;;
12591;SDS011;6361;52.120;5.108;2022-10-13T00:33:21;22.67;;;12.48;;
12591;SDS011;6361;52.120;5.108;2022-10-13T00:35:47;22.75;;;13.00;;
12591;SDS011;6361;52.120;5.108;2022-10-13T00:38:14;23.85;;;12.52;;
12591;SDS011;6361;52.120;5.108;2022-10-13T00:43:19;24.70;;;13.65;;
12591;SDS011;6361;52.120;5.108;2022-10-13T00:45:46;21.60;;;12.25;;
12591;SDS011;6361;52.120;5.108;2022-10-13T00:48:14;25.10;;;12.65;;
12591;SDS011;6361;52.120;5.108;2022-10-13T00:50:41;30.35;;;12.90;;
12591;SDS011;6361;52.120;5.108;2022-10-13T00:53:07;28.35;;;12.98;;
12591;SDS011;6361;52.120;5.108;2022-10-13T00:55:35;18.33;;;12.32;;
12591;SDS011;6361;52.120;5.108;2022-10-13T00:58:02;22.55;;;12.45;;
12591;SDS011;6361;52.120;5.108;2022-10-13T01:00:29;23.50;;;12.40;;
12591;SDS011;6361;52.120;5.108;2022-10-13T01:02:55;26.60;;;13.73;;
12591;SDS011;6361;52.120;5.108;2022-10-13T01:05:21;26.13;;;13.50;;
12591;SDS011;6361;52.120;5.108;2022-10-13T01:07:49;23.42;;;13.15;;
12591;SDS011;6361;52.120;5.108;2022-10-13T01:10:16;24.30;;;13.55;;
12591;SDS011;6361;52.120;5.108;2022-10-13T01:21:17;28.88;;;14.02;;
12591;SDS011;6361;52.120;5.108;2022-10-13T01:31:36;28.27;;;13.43;;
12591;SDS011;6361;52.120;5.108;2022-10-13T01:36:42;21.73;;;13.30;;
12591;SDS011;6361;52.120;5.108;2022-10-13T01:41:50;24.25;;;13.63;;
12591;SDS011;6361;52.120;5.108;2022-10-13T01:44:22;28.00;;;14.50;;
12591;SDS011;6361;52.120;5.108;2022-10-13T01:46:50;25.17;;;13.50;;
12591;SDS011;6361;52.120;5.108;2022-10-13T01:49:17;22.63;;;13.73;;
12591;SDS011;6361;52.120;5.108;2022-10-13T01:51:43;21.38;;;13.43;;
12591;SDS011;6361;52.120;5.108;2022-10-13T01:54:09;23.88;;;14.10;;
12591;SDS011;6361;52.120;5.108;2022-10-13T01:56:35;23.77;;;13.88;;
12591;SDS011;6361;52.120;5.108;2022-10-13T01:59:08;28.60;;;15.02;;
12591;SDS011;6361;52.120;5.108;2022-10-13T02:04:24;27.13;;;13.45;;
12591;SDS011;6361;52.120;5.108;2022-10-13T02:09:53;23.02;;;13.68;;
12591;SDS011;6361;52.120;5.108;2022-10-13T02:12:35;26.65;;;13.57;;
12591;SDS011;6361;52.120;5.108;2022-10-13T02:15:11;25.50;;;13.85;;
12591;SDS011;6361;52.120;5.108;2022-10-13T02:17:38;21.98;;;14.13;;
12591;SDS011;6361;52.120;5.108;2022-10-13T02:20:04;28.85;;;14.75;;
12591;SDS011;6361;52.120;5.108;2022-10-13T02:22:31;27.38;;;14.38;;
12591;SDS011;6361;52.120;5.108;2022-10-13T02:25:00;36.35;;;15.00;;
12591;SDS011;6361;52.120;5.108;2022-10-13T02:27:25;28.05;;;14.98;;
12591;SDS011;6361;52.120;5.108;2022-10-13T02:29:52;27.42;;;14.90;;
12591;SDS011;6361;52.120;5.108;2022-10-13T02:32:21;31.02;;;15.55;;
12591;SDS011;6361;52.120;5.108;2022-10-13T02:34:47;25.23;;;15.57;;
12591;SDS011;6361;52.120;5.108;2022-10-13T02:37:13;22.67;;;14.63;;
12591;SDS011;6361;52.120;5.108;2022-10-13T02:39:38;23.27;;;13.52;;
12591;SDS011;6361;52.120;5.108;2022-10-13T02:42:04;25.60;;;14.88;;
12591;SDS011;6361;52.120;5.108;2022-10-13T02:44:29;28.08;;;14.70;;
12591;SDS011;6361;52.120;5.108;2022-10-13T02:46:54;25.33;;;14.88;;
12591;SDS011;6361;52.120;5.108;2022-10-13T02:49:20;24.60;;;13.90;;
12591;SDS011;6361;52.120;5.108;2022-10-13T02:51:45;29.13;;;14.60;;
12591;SDS011;6361;52.120;5.108;2022-10-13T02:54:11;25.23;;;14.80;;
12591;SDS011;6361;52.120;5.108;2022-10-13T02:56:36;27.58;;;14.63;;
12591;SDS011;6361;52.120;5.108;2022-10-13T02:59:02;26.00;;;14.20;;
12591;SDS011;6361;52.120;5.108;2022-10-13T03:01:27;26.58;;;14.70;;
12591;SDS011;6361;52.120;5.108;2022-10-13T03:03:53;24.00;;;14.77;;
12591;SDS011;6361;52.120;5.108;2022-10-13T03:06:18;23.63;;;14.13;;
12591;SDS011;6361;52.120;5.108;2022-10-13T03:08:43;22.67;;;14.40;;
12591;SDS011;6361;52.120;5.108;2022-10-13T03:11:09;22.40;;;13.60;;
12591;SDS011;6361;52.120;5.108;2022-10-13T03:13:35;26.73;;;14.10;;
12591;SDS011;6361;52.120;5.108;2022-10-13T03:16:00;25.88;;;14.23;;
12591;SDS011;6361;52.120;5.108;2022-10-13T03:18:26;23.67;;;14.00;;
12591;SDS011;6361;52.120;5.108;2022-10-13T03:20:55;25.55;;;13.77;;
12591;SDS011;6361;52.120;5.108;2022-10-13T03:23:25;26.15;;;13.90;;
12591;SDS011;6361;52.120;5.108;2022-10-13T03:25:50;22.38;;;13.82;;
12591;SDS011;6361;52.120;5.108;2022-10-13T03:28:16;23.08;;;14.07;;
12591;SDS011;6361;52.120;5.108;2022-10-13T03:30:42;22.70;;;14.48;;
12591;SDS011;6361;52.120;5.108;2022-10-13T03:33:07;25.00;;;13.93;;
12591;SDS011;6361;52.120;5.108;2022-10-13T03:35:33;25.60;;;13.80;;
12591;SDS011;6361;52.120;5.108;2022-10-13T03:37:58;21.92;;;13.63;;
12591;SDS011;6361;52.120;5.108;2022-10-13T03:40:23;26.33;;;14.48;;
12591;SDS011;6361;52.120;5.108;2022-10-13T03:42:49;26.92;;;13.55;;
12591;SDS011;6361;52.120;5.108;2022-10-13T03:45:14;24.40;;;13.70;;
12591;SDS011;6361;52.120;5.108;2022-10-13T03:47:40;27.73;;;14.07;;
12591;SDS011;6361;52.120;5.108;2022-10-13T03:50:05;26.08;;;14.20;;
12591;SDS011;6361;52.120;5.108;2022-10-13T03:52:31;24.27;;;13.95;;
12591;SDS011;6361;52.120;5.108;2022-10-13T03:54:56;28.38;;;13.88;;
12591;SDS011;6361;52.120;5.108;2022-10-13T03:57:21;25.23;;;13.75;;
12591;SDS011;6361;52.120;5.108;2022-10-13T03:59:47;24.92;;;13.52;;
12591;SDS011;6361;52.120;5.108;2022-10-13T04:02:12;22.45;;;13.43;;
12591;SDS011;6361;52.120;5.108;2022-10-13T04:04:38;28.17;;;14.00;;
12591;SDS011;6361;52.120;5.108;2022-10-13T04:07:04;22.30;;;13.43;;
12591;SDS011;6361;52.120;5.108;2022-10-13T04:09:29;22.65;;;13.85;;
12591;SDS011;6361;52.120;5.108;2022-10-13T04:11:54;22.45;;;13.43;;
12591;SDS011;6361;52.120;5.108;2022-10-13T04:14:20;28.30;;;14.23;;
12591;SDS011;6361;52.120;5.108;2022-10-13T04:16:45;25.80;;;13.70;;
12591;SDS011;6361;52.120;5.108;2022-10-13T04:19:12;24.00;;;14.07;;
12591;SDS011;6361;52.120;5.108;2022-10-13T04:21:38;23.73;;;13.55;;
12591;SDS011;6361;52.120;5.108;2022-10-13T04:24:04;23.70;;;13.80;;
12591;SDS011;6361;52.120;5.108;2022-10-13T04:26:31;26.63;;;13.35;;
12591;SDS011;6361;52.120;5.108;2022-10-13T04:28:59;26.00;;;14.60;;
12591;SDS011;6361;52.120;5.108;2022-10-13T04:31:27;27.92;;;14.82;;
12591;SDS011;6361;52.120;5.108;2022-10-13T04:33:53;30.63;;;14.73;;
12591;SDS011;6361;52.120;5.108;2022-10-13T04:36:19;25.15;;;14.82;;
12591;SDS011;6361;52.120;5.108;2022-10-13T04:38:44;33.42;;;15.00;;
12591;SDS011;6361;52.120;5.108;2022-10-13T04:41:10;28.38;;;14.75;;
12591;SDS011;6361;52.120;5.108;2022-10-13T04:43:36;27.02;;;14.32;;
12591;SDS011;6361;52.120;5.108;2022-10-13T04:46:06;27.33;;;14.25;;
12591;SDS011;6361;52.120;5.108;2022-10-13T04:48:33;28.65;;;14.85;;
12591;SDS011;6361;52.120;5.108;2022-10-13T04:51:00;28.52;;;14.27;;
12591;SDS011;6361;52.120;5.108;2022-10-13T04:53:29;28.23;;;14.65;;
12591;SDS011;6361;52.120;5.108;2022-10-13T04:55:55;32.33;;;14.73;;
12591;SDS011;6361;52.120;5.108;2022-10-13T04:58:22;30.73;;;14.52;;
12591;SDS011;6361;52.120;5.108;2022-10-13T05:00:47;26.75;;;15.50;;
12591;SDS011;6361;52.120;5.108;2022-10-13T05:03:13;24.48;;;14.90;;
12591;SDS011;6361;52.120;5.108;2022-10-13T05:05:38;27.05;;;14.60;;
12591;SDS011;6361;52.120;5.108;2022-10-13T05:08:04;25.92;;;14.05;;
12591;SDS011;6361;52.120;5.108;2022-10-13T05:10:29;28.90;;;15.10;;
12591;SDS011;6361;52.120;5.108;2022-10-13T05:12:55;25.38;;;14.88;;
12591;SDS011;6361;52.120;5.108;2022-10-13T05:15:20;28.63;;;14.55;;
12591;SDS011;6361;52.120;5.108;2022-10-13T05:17:46;29.05;;;15.43;;
12591;SDS011;6361;52.120;5.108;2022-10-13T05:20:11;23.77;;;14.30;;
12591;SDS011;6361;52.120;5.108;2022-10-13T05:22:36;27.73;;;15.35;;
12591;SDS011;6361;52.120;5.108;2022-10-13T05:25:02;32.47;;;15.82;;
12591;SDS011;6361;52.120;5.108;2022-10-13T05:27:28;40.03;;;16.40;;
12591;SDS011;6361;52.120;5.108;2022-10-13T05:29:53;29.90;;;14.32;;
12591;SDS011;6361;52.120;5.108;2022-10-13T05:32:18;26.17;;;15.18;;
12591;SDS011;6361;52.120;5.108;2022-10-13T05:34:46;26.15;;;14.65;;
12591;SDS011;6361;52.120;5.108;2022-10-13T05:37:12;27.88;;;14.85;;
12591;SDS011;6361;52.120;5.108;2022-10-13T05:39:37;29.17;;;15.73;;
12591;SDS011;6361;52.120;5.108;2022-10-13T05:42:02;28.27;;;15.52;;
12591;SDS011;6361;52.120;5.108;2022-10-13T05:44:28;29.08;;;15.82;;
12591;SDS011;6361;52.120;5.108;2022-10-13T05:46:53;29.45;;;15.43;;
12591;SDS011;6361;52.120;5.108;2022-10-13T05:49:19;31.45;;;15.38;;
12591;SDS011;6361;52.120;5.108;2022-10-13T05:51:46;32.33;;;16.02;;
12591;SDS011;6361;52.120;5.108;2022-10-13T05:54:15;31.95;;;16.50;;
12591;SDS011;6361;52.120;5.108;2022-10-13T05:56:43;33.55;;;15.95;;
12591;SDS011;6361;52.120;5.108;2022-10-13T05:59:16;33.10;;;15.88;;
12591;SDS011;6361;52.120;5.108;2022-10-13T06:01:43;30.40;;;15.02;;
12591;SDS011;6361;52.120;5.108;2022-10-13T06:04:10;30.40;;;15.82;;
12591;SDS011;6361;52.120;5.108;2022-10-13T06:06:38;31.45;;;15.98;;
12591;SDS011;6361;52.120;5.108;2022-10-13T06:09:04;31.88;;;15.70;;
12591;SDS011;6361;52.120;5.108;2022-10-13T06:11:30;30.33;;;16.75;;
12591;SDS011;6361;52.120;5.108;2022-10-13T06:13:55;36.38;;;16.35;;
12591;SDS011;6361;52.120;5.108;2022-10-13T06:16:20;37.97;;;16.75;;
12591;SDS011;6361;52.120;5.108;2022-10-13T06:18:46;32.30;;;16.70;;
12591;SDS011;6361;52.120;5.108;2022-10-13T06:21:11;30.80;;;16.30;;
12591;SDS011;6361;52.120;5.108;2022-10-13T06:23:37;37.05;;;16.65;;
12591;SDS011;6361;52.120;5.108;2022-10-13T06:26:02;31.85;;;16.08;;
12591;SDS011;6361;52.120;5.108;2022-10-13T06:28:28;33.15;;;16.60;;
12591;SDS011;6361;52.120;5.108;2022-10-13T06:30:53;31.13;;;16.58;;
12591;SDS011;6361;52.120;5.108;2022-10-13T06:33:21;37.10;;;16.63;;
12591;SDS011;6361;52.120;5.108;2022-10-13T06:35:47;26.08;;;15.27;;
12591;SDS011;6361;52.120;5.108;2022-10-13T06:38:12;33.38;;;17.15;;
12591;SDS011;6361;52.120;5.108;2022-10-13T06:40:38;29.33;;;17.02;;
12591;SDS011;6361;52.120;5.108;2022-10-13T06:43:03;35.38;;;17.90;;
12591;SDS011;6361;52.120;5.108;2022-10-13T06:45:29;37.35;;;17.88;;
12591;SDS011;6361;52.120;5.108;2022-10-13T06:47:54;34.60;;;17.20;;
12591;SDS011;6361;52.120;5.108;2022-10-13T06:50:20;34.40;;;18.33;;
12591;SDS011;6361;52.120;5.108;2022-10-13T06:52:46;31.05;;;18.13;;
12591;SDS011;6361;52.120;5.108;2022-10-13T06:55:11;40.90;;;19.38;;
12591;SDS011;6361;52.120;5.108;2022-10-13T06:57:37;35.60;;;19.42;;
12591;SDS011;6361;52.120;5.108;2022-10-13T07:00:03;30.88;;;18.85;;
12591;SDS011;6361;52.120;5.108;2022-10-13T07:02:29;37.33;;;19.52;;
12591;SDS011;6361;52.120;5.108;2022-10-13T07:04:54;37.40;;;20.63;;
12591;SDS011;6361;52.120;5.108;2022-10-13T07:07:20;36.50;;;21.02;;
12591;SDS011;6361;52.120;5.108;2022-10-13T07:09:45;32.67;;;21.02;;
12591;SDS011;6361;52.120;5.108;2022-10-13T07:12:11;40.75;;;22.13;;
12591;SDS011;6361;52.120;5.108;2022-10-13T07:14:37;45.63;;;22.83;;
12591;SDS011;6361;52.120;5.108;2022-10-13T07:17:03;36.65;;;22.98;;
12591;SDS011;6361;52.120;5.108;2022-10-13T07:19:28;41.75;;;23.73;;
12591;SDS011;6361;52.120;5.108;2022-10-13T07:21:53;45.90;;;24.92;;
12591;SDS011;6361;52.120;5.108;2022-10-13T07:24:19;41.55;;;24.80;;
12591;SDS011;6361;52.120;5.108;2022-10-13T07:26:44;48.20;;;26.05;;
12591;SDS011;6361;52.120;5.108;2022-10-13T07:29:09;47.50;;;25.67;;
12591;SDS011;6361;52.120;5.108;2022-10-13T07:31:35;46.33;;;25.88;;
12591;SDS011;6361;52.120;5.108;2022-10-13T07:34:00;46.50;;;26.08;;
12591;SDS011;6361;52.120;5.108;2022-10-13T07:36:26;50.70;;;27.35;;
12591;SDS011;6361;52.120;5.108;2022-10-13T07:38:52;54.78;;;27.23;;
12591;SDS011;6361;52.120;5.108;2022-10-13T07:41:17;48.50;;;29.08;;
12591;SDS011;6361;52.120;5.108;2022-10-13T07:43:43;51.72;;;29.67;;
12591;SDS011;6361;52.120;5.108;2022-10-13T07:46:09;48.17;;;27.55;;
12591;SDS011;6361;52.120;5.108;2022-10-13T07:48:36;54.03;;;28.00;;
12591;SDS011;6361;52.120;5.108;2022-10-13T07:51:05;57.03;;;28.63;;
12591;SDS011;6361;52.120;5.108;2022-10-13T07:53:32;48.40;;;29.10;;
12591;SDS011;6361;52.120;5.108;2022-10-13T07:55:59;48.33;;;29.10;;
12591;SDS011;6361;52.120;5.108;2022-10-13T07:58:25;56.22;;;29.20;;
12591;SDS011;6361;52.120;5.108;2022-10-13T08:00:54;45.30;;;27.92;;
12591;SDS011;6361;52.120;5.108;2022-10-13T08:03:20;50.03;;;29.13;;
12591;SDS011;6361;52.120;5.108;2022-10-13T08:05:46;48.30;;;27.67;;
12591;SDS011;6361;52.120;5.108;2022-10-13T08:08:11;49.33;;;27.92;;
12591;SDS011;6361;52.120;5.108;2022-10-13T08:10:36;43.05;;;26.35;;
12591;SDS011;6361;52.120;5.108;2022-10-13T08:13:02;49.38;;;29.90;;
12591;SDS011;6361;52.120;5.108;2022-10-13T08:15:27;42.95;;;28.00;;
12591;SDS011;6361;52.120;5.108;2022-10-13T08:17:52;43.60;;;26.00;;
12591;SDS011;6361;52.120;5.108;2022-10-13T08:20:18;43.95;;;26.77;;
12591;SDS011;6361;52.120;5.108;2022-10-13T08:22:43;48.17;;;26.35;;
12591;SDS011;6361;52.120;5.108;2022-10-13T08:25:08;46.20;;;26.95;;
12591;SDS011;6361;52.120;5.108;2022-10-13T08:27:34;43.65;;;25.48;;
12591;SDS011;6361;52.120;5.108;2022-10-13T08:30:01;44.42;;;25.67;;
12591;SDS011;6361;52.120;5.108;2022-10-13T08:32:26;46.47;;;26.23;;
12591;SDS011;6361;52.120;5.108;2022-10-13T08:34:51;47.83;;;25.33;;
12591;SDS011;6361;52.120;5.108;2022-10-13T08:37:18;45.03;;;25.27;;
12591;SDS011;6361;52.120;5.108;2022-10-13T08:39:45;42.85;;;24.70;;
12591;SDS011;6361;52.120;5.108;2022-10-13T08:42:12;43.92;;;25.80;;
12591;SDS011;6361;52.120;5.108;2022-10-13T08:44:40;41.45;;;25.30;;
12591;SDS011;6361;52.120;5.108;2022-10-13T08:47:12;38.47;;;24.35;;
12591;SDS011;6361;52.120;5.108;2022-10-13T08:49:40;42.65;;;24.63;;
12591;SDS011;6361;52.120;5.108;2022-10-13T08:52:09;38.13;;;24.73;;
12591;SDS011;6361;52.120;5.108;2022-10-13T08:54:43;43.97;;;24.45;;
12591;SDS011;6361;52.120;5.108;2022-10-13T08:57:09;39.00;;;24.25;;
12591;SDS011;6361;52.120;5.108;2022-10-13T08:59:34;37.65;;;24.20;;
12591;SDS011;6361;52.120;5.108;2022-10-13T09:02:00;37.60;;;22.88;;
12591;SDS011;6361;52.120;5.108;2022-10-13T09:04:30;37.58;;;24.30;;
12591;SDS011;6361;52.120;5.108;2022-10-13T09:07:14;41.65;;;25.77;;
12591;SDS011;6361;52.120;5.108;2022-10-13T09:09:41;41.65;;;24.58;;
12591;SDS011;6361;52.120;5.108;2022-10-13T09:12:09;39.58;;;24.58;;
12591;SDS011;6361;52.120;5.108;2022-10-13T09:14:36;37.13;;;23.83;;
12591;SDS011;6361;52.120;5.108;2022-10-13T09:22:44;39.22;;;23.95;;
12591;SDS011;6361;52.120;5.108;2022-10-13T09:25:25;38.78;;;24.10;;
12591;SDS011;6361;52.120;5.108;2022-10-13T09:27:55;41.78;;;25.10;;
12591;SDS011;6361;52.120;5.108;2022-10-13T09:30:29;37.78;;;24.85;;
12591;SDS011;6361;52.120;5.108;2022-10-13T09:35:35;32.92;;;22.45;;
12591;SDS011;6361;52.120;5.108;2022-10-13T09:38:06;40.92;;;23.98;;
12591;SDS011;6361;52.120;5.108;2022-10-13T09:40:35;37.70;;;23.17;;
12591;SDS011;6361;52.120;5.108;2022-10-13T09:43:01;41.40;;;24.05;;
12591;SDS011;6361;52.120;5.108;2022-10-13T09:45:27;40.92;;;23.42;;
12591;SDS011;6361;52.120;5.108;2022-10-13T09:50:26;39.00;;;23.23;;
12591;SDS011;6361;52.120;5.108;2022-10-13T09:52:53;36.03;;;22.75;;
12591;SDS011;6361;52.120;5.108;2022-10-13T09:55:46;37.33;;;22.70;;
12591;SDS011;6361;52.120;5.108;2022-10-13T09:58:34;35.72;;;21.67;;
12591;SDS011;6361;52.120;5.108;2022-10-13T10:01:00;38.92;;;22.83;;
12591;SDS011;6361;52.120;5.108;2022-10-13T10:03:32;39.53;;;23.27;;
12591;SDS011;6361;52.120;5.108;2022-10-13T10:06:00;35.85;;;22.08;;
12591;SDS011;6361;52.120;5.108;2022-10-13T10:08:35;36.28;;;22.83;;
12591;SDS011;6361;52.120;5.108;2022-10-13T10:11:23;36.58;;;21.40;;
12591;SDS011;6361;52.120;5.108;2022-10-13T10:13:51;34.53;;;22.05;;
12591;SDS011;6361;52.120;5.108;2022-10-13T10:18:48;35.42;;;19.45;;
12591;SDS011;6361;52.120;5.108;2022-10-13T10:21:23;32.45;;;18.95;;
12591;SDS011;6361;52.120;5.108;2022-10-13T10:23:51;35.13;;;19.08;;
12591;SDS011;6361;52.120;5.108;2022-10-13T10:26:21;30.63;;;18.15;;
12591;SDS011;6361;52.120;5.108;2022-10-13T10:36:46;28.73;;;16.58;;
12591;SDS011;6361;52.120;5.108;2022-10-13T10:45:15;27.00;;;15.20;;
12591;SDS011;6361;52.120;5.108;2022-10-13T10:47:44;25.83;;;15.10;;
12591;SDS011;6361;52.120;5.108;2022-10-13T10:50:15;23.80;;;15.48;;
12591;SDS011;6361;52.120;5.108;2022-10-13T10:52:57;27.55;;;15.65;;
12591;SDS011;6361;52.120;5.108;2022-10-13T10:55:44;31.35;;;16.48;;
12591;SDS011;6361;52.120;5.108;2022-10-13T11:03:57;30.43;;;17.63;;
12591;SDS011;6361;52.120;5.108;2022-10-13T11:06:33;31.35;;;17.38;;
12591;SDS011;6361;52.120;5.108;2022-10-13T11:08:59;26.50;;;16.33;;
12591;SDS011;6361;52.120;5.108;2022-10-13T11:13:54;25.05;;;16.00;;
12591;SDS011;6361;52.120;5.108;2022-10-13T11:21:20;31.23;;;16.77;;
12591;SDS011;6361;52.120;5.108;2022-10-13T11:23:47;24.70;;;16.52;;
12591;SDS011;6361;52.120;5.108;2022-10-13T11:26:27;30.33;;;17.15;;
12591;SDS011;6361;52.120;5.108;2022-10-13T11:28:55;27.63;;;17.10;;
12591;SDS011;6361;52.120;5.108;2022-10-13T11:33:52;30.20;;;17.83;;
12591;SDS011;6361;52.120;5.108;2022-10-13T11:36:35;32.63;;;18.75;;
12591;SDS011;6361;52.120;5.108;2022-10-13T11:47:20;34.67;;;19.60;;
12591;SDS011;6361;52.120;5.108;2022-10-13T11:50:21;32.72;;;19.77;;
12591;SDS011;6361;52.120;5.108;2022-10-13T11:53:12;40.38;;;20.17;;
12591;SDS011;6361;52.120;5.108;2022-10-13T11:55:42;33.15;;;20.30;;
12591;SDS011;6361;52.120;5.108;2022-10-13T11:58:31;34.70;;;20.63;;
12591;SDS011;6361;52.120;5.108;2022-10-13T12:00:58;31.35;;;19.65;;
12591;SDS011;6361;52.120;5.108;2022-10-13T12:08:47;42.00;;;20.90;;
12591;SDS011;6361;52.120;5.108;2022-10-13T12:11:32;37.47;;;20.38;;
12591;SDS011;6361;52.120;5.108;2022-10-13T12:14:00;34.63;;;19.63;;
12591;SDS011;6361;52.120;5.108;2022-10-13T12:16:50;34.28;;;20.27;;
12591;SDS011;6361;52.120;5.108;2022-10-13T12:19:21;41.88;;;20.67;;
12591;SDS011;6361;52.120;5.108;2022-10-13T12:21:49;33.78;;;19.27;;
12591;SDS011;6361;52.120;5.108;2022-10-13T12:24:21;36.45;;;19.20;;
12591;SDS011;6361;52.120;5.108;2022-10-13T12:26:47;34.17;;;19.50;;
12591;SDS011;6361;52.120;5.108;2022-10-13T12:29:13;35.28;;;18.27;;
12591;SDS011;6361;52.120;5.108;2022-10-13T12:31:39;32.75;;;18.20;;
12591;SDS011;6361;52.120;5.108;2022-10-13T12:34:17;33.00;;;17.88;;
12591;SDS011;6361;52.120;5.108;2022-10-13T12:36:51;38.95;;;18.70;;
12591;SDS011;6361;52.120;5.108;2022-10-13T12:39:23;33.63;;;17.38;;
12591;SDS011;6361;52.120;5.108;2022-10-13T12:41:50;33.80;;;17.83;;
12591;SDS011;6361;52.120;5.108;2022-10-13T12:44:17;33.60;;;17.60;;
12591;SDS011;6361;52.120;5.108;2022-10-13T12:46:46;33.58;;;17.55;;
12591;SDS011;6361;52.120;5.108;2022-10-13T12:49:32;28.88;;;17.23;;
12591;SDS011;6361;52.120;5.108;2022-10-13T12:54:34;31.15;;;16.42;;
12591;SDS011;6361;52.120;5.108;2022-10-13T12:57:03;30.45;;;17.20;;
12591;SDS011;6361;52.120;5.108;2022-10-13T12:59:40;31.67;;;16.20;;
12591;SDS011;6361;52.120;5.108;2022-10-13T13:02:20;35.50;;;15.98;;
12591;SDS011;6361;52.120;5.108;2022-10-13T13:04:48;27.35;;;16.55;;
12591;SDS011;6361;52.120;5.108;2022-10-13T13:07:30;28.65;;;16.45;;
12591;SDS011;6361;52.120;5.108;2022-10-13T13:10:02;28.75;;;16.90;;
12591;SDS011;6361;52.120;5.108;2022-10-13T13:12:31;30.50;;;16.02;;
12591;SDS011;6361;52.120;5.108;2022-10-13T13:14:56;28.08;;;16.05;;
12591;SDS011;6361;52.120;5.108;2022-10-13T13:17:24;28.75;;;15.52;;
12591;SDS011;6361;52.120;5.108;2022-10-13T13:19:51;26.88;;;16.48;;
12591;SDS011;6361;52.120;5.108;2022-10-13T13:22:18;30.65;;;16.35;;
12591;SDS011;6361;52.120;5.108;2022-10-13T13:24:43;29.40;;;16.35;;
12591;SDS011;6361;52.120;5.108;2022-10-13T13:27:16;27.58;;;15.90;;
12591;SDS011;6361;52.120;5.108;2022-10-13T13:29:43;33.55;;;16.58;;
12591;SDS011;6361;52.120;5.108;2022-10-13T13:32:12;29.00;;;16.77;;
12591;SDS011;6361;52.120;5.108;2022-10-13T13:34:39;30.65;;;16.70;;
12591;SDS011;6361;52.120;5.108;2022-10-13T13:37:04;28.67;;;17.38;;
12591;SDS011;6361;52.120;5.108;2022-10-13T13:39:30;28.80;;;18.13;;
12591;SDS011;6361;52.120;5.108;2022-10-13T13:41:55;31.17;;;17.20;;
12591;SDS011;6361;52.120;5.108;2022-10-13T13:44:20;32.13;;;17.00;;
12591;SDS011;6361;52.120;5.108;2022-10-13T13:46:46;33.13;;;17.75;;
12591;SDS011;6361;52.120;5.108;2022-10-13T13:49:11;32.33;;;17.45;;
12591;SDS011;6361;52.120;5.108;2022-10-13T13:51:36;39.13;;;18.83;;
12591;SDS011;6361;52.120;5.108;2022-10-13T13:54:02;28.02;;;17.40;;
12591;SDS011;6361;52.120;5.108;2022-10-13T13:56:28;34.00;;;17.92;;
12591;SDS011;6361;52.120;5.108;2022-10-13T13:58:53;32.13;;;17.98;;
12591;SDS011;6361;52.120;5.108;2022-10-13T14:01:19;31.73;;;18.38;;
12591;SDS011;6361;52.120;5.108;2022-10-13T14:03:44;33.70;;;18.77;;
12591;SDS011;6361;52.120;5.108;2022-10-13T14:06:15;32.30;;;19.23;;
12591;SDS011;6361;52.120;5.108;2022-10-13T14:08:42;29.38;;;18.20;;
12591;SDS011;6361;52.120;5.108;2022-10-13T14:11:07;30.88;;;19.45;;
12591;SDS011;6361;52.120;5.108;2022-10-13T14:13:33;31.73;;;18.92;;
12591;SDS011;6361;52.120;5.108;2022-10-13T14:15:59;28.00;;;18.73;;
12591;SDS011;6361;52.120;5.108;2022-10-13T14:18:25;29.08;;;19.38;;
12591;SDS011;6361;52.120;5.108;2022-10-13T14:20:51;33.50;;;20.20;;
12591;SDS011;6361;52.120;5.108;2022-10-13T14:23:16;37.58;;;20.35;;
12591;SDS011;6361;52.120;5.108;2022-10-13T14:25:42;35.33;;;21.02;;
12591;SDS011;6361;52.120;5.108;2022-10-13T14:28:07;36.90;;;20.35;;
12591;SDS011;6361;52.120;5.108;2022-10-13T14:30:32;28.73;;;20.00;;
12591;SDS011;6361;52.120;5.108;2022-10-13T14:32:58;34.05;;;20.42;;
12591;SDS011;6361;52.120;5.108;2022-10-13T14:35:24;32.72;;;20.75;;
12591;SDS011;6361;52.120;5.108;2022-10-13T14:37:49;30.58;;;20.48;;
12591;SDS011;6361;52.120;5.108;2022-10-13T14:40:15;30.15;;;20.45;;
12591;SDS011;6361;52.120;5.108;2022-10-13T14:42:40;31.33;;;19.27;;
12591;SDS011;6361;52.120;5.108;2022-10-13T14:45:06;31.10;;;20.88;;
12591;SDS011;6361;52.120;5.108;2022-10-13T14:47:32;32.85;;;19.88;;
12591;SDS011;6361;52.120;5.108;2022-10-13T14:49:58;30.75;;;20.10;;
12591;SDS011;6361;52.120;5.108;2022-10-13T14:52:25;34.38;;;20.20;;
12591;SDS011;6361;52.120;5.108;2022-10-13T14:54:50;31.38;;;20.30;;
12591;SDS011;6361;52.120;5.108;2022-10-13T14:57:15;30.50;;;19.98;;
12591;SDS011;6361;52.120;5.108;2022-10-13T14:59:41;32.33;;;20.30;;
12591;SDS011;6361;52.120;5.108;2022-10-13T15:02:07;32.30;;;20.27;;
12591;SDS011;6361;52.120;5.108;2022-10-13T15:04:34;36.65;;;20.13;;
12591;SDS011;6361;52.120;5.108;2022-10-13T15:06:59;31.08;;;20.58;;
12591;SDS011;6361;52.120;5.108;2022-10-13T15:09:25;32.33;;;20.30;;
12591;SDS011;6361;52.120;5.108;2022-10-13T15:11:50;32.75;;;20.80;;
12591;SDS011;6361;52.120;5.108;2022-10-13T15:14:15;31.42;;;20.30;;
12591;SDS011;6361;52.120;5.108;2022-10-13T15:16:41;35.33;;;20.63;;
12591;SDS011;6361;52.120;5.108;2022-10-13T15:19:06;34.80;;;20.33;;
12591;SDS011;6361;52.120;5.108;2022-10-13T15:21:32;31.33;;;20.10;;
12591;SDS011;6361;52.120;5.108;2022-10-13T15:23:57;32.45;;;19.73;;
12591;SDS011;6361;52.120;5.108;2022-10-13T15:26:23;30.52;;;19.88;;
12591;SDS011;6361;52.120;5.108;2022-10-13T15:28:49;32.90;;;20.13;;
12591;SDS011;6361;52.120;5.108;2022-10-13T15:31:16;33.70;;;19.90;;
12591;SDS011;6361;52.120;5.108;2022-10-13T15:33:44;30.67;;;20.08;;
12591;SDS011;6361;52.120;5.108;2022-10-13T15:36:10;33.63;;;19.75;;
12591;SDS011;6361;52.120;5.108;2022-10-13T15:38:35;31.83;;;19.92;;
12591;SDS011;6361;52.120;5.108;2022-10-13T15:41:02;29.55;;;18.83;;
12591;SDS011;6361;52.120;5.108;2022-10-13T15:43:28;29.65;;;18.30;;
12591;SDS011;6361;52.120;5.108;2022-10-13T15:45:54;30.45;;;19.13;;
12591;SDS011;6361;52.120;5.108;2022-10-13T15:48:21;29.42;;;18.60;;
12591;SDS011;6361;52.120;5.108;2022-10-13T15:50:46;27.08;;;18.48;;
12591;SDS011;6361;52.120;5.108;2022-10-13T15:53:12;29.65;;;18.65;;
12591;SDS011;6361;52.120;5.108;2022-10-13T15:55:37;23.48;;;15.32;;
12591;SDS011;6361;52.120;5.108;2022-10-13T15:58:04;16.23;;;12.63;;
12591;SDS011;6361;52.120;5.108;2022-10-13T16:00:29;20.70;;;13.13;;
12591;SDS011;6361;52.120;5.108;2022-10-13T16:02:55;17.52;;;13.38;;
12591;SDS011;6361;52.120;5.108;2022-10-13T16:05:20;15.93;;;13.20;;